Sea Commander — VGGC — position and weather

sailwx.info

Track history (hours):
 
Tides and Currents Weather Stations Pressure Air Temp Water Temp Dewpoint Dewpoint Depression Visibility Wind Speed Wind Dir Waves Ship Positions

Sea Commander

Last reported at 2014-Aug-02 02:33 UTC. Time now 2014-Aug-02 02:49 UTC.
Position N 49°10' W 122°56'.

Length 44 m; draft 7 m.

Type: Tug. MMSI: 316001043.

Date/timePositionNaut miles runAvg speedWind from/ knotsBaromVisibWave heightAir tempDewpointWater temp
2014-Aug-02 02:33N 49°10' W 122°56'5 4.7
2014-Aug-02 01:33N 49°08' W 123°03'5 4.5
2014-Aug-02 00:33N 49°07' W 123°10'4 3.7
2014-Aug-01 23:33N 49°08' W 123°15'3 3.1
2014-Aug-01 22:33N 49°06' W 123°19'5 5.2
2014-Aug-01 21:33N 49°01' W 123°15'3 3.1
2014-Aug-01 20:34N 48°58' W 123°14'4 4.4
2014-Aug-01 19:33N 49°01' W 123°19'4 3.9
2014-Aug-01 18:33N 49°04' W 123°23'5 4.5
2014-Aug-01 17:33N 49°08' W 123°26'4 4.5
2014-Aug-01 16:33N 49°12' W 123°31'5 4.8
2014-Aug-01 15:33N 49°15' W 123°35'5 4.6
2014-Aug-01 14:33N 49°18' W 123°41'5 4.5
2014-Aug-01 13:33N 49°20' W 123°47'4 4.5
2014-Aug-01 12:33N 49°23' W 123°53'5 4.5
2014-Aug-01 11:33N 49°25' W 123°59'4 4.5
2014-Aug-01 10:33N 49°27' W 124°05'5 4.7
2014-Aug-01 09:33N 49°30' W 124°11'5 4.8
2014-Aug-01 08:33N 49°32' W 124°17'4 4.5
2014-Aug-01 07:33N 49°34' W 124°23'4 4.3
2014-Aug-01 06:33N 49°36' W 124°29'5 4.6
2014-Aug-01 05:33N 49°38' W 124°35'5 4.6
2014-Aug-01 04:33N 49°41' W 124°41'5 4.7
2014-Aug-01 03:33N 49°44' W 124°46'5 4.5
2014-Aug-01 02:33N 49°47' W 124°51'5 4.8
2014-Aug-01 01:31N 49°51' W 124°57'5 4.7
2014-Aug-01 00:33N 49°53' W 125°03'5 5.1
2014-Jul-31 23:32N 49°57' W 125°09'9 7.9
2014-Jul-31 22:27N 50°04' W 125°15'35 4.3
2014-Jul-31 14:24N 50°25' W 125°59'20 6.7
2014-Jul-31 11:25N 50°30' W 126°30'8 6.0
2014-Jul-31 10:07N 50°32' W 126°41'17 6.2
2014-Jul-31 07:24N 50°45' W 126°60'5 6.1
2014-Jul-31 06:32N 50°48' W 127°06'6 6.5
2014-Jul-31 05:32N 50°51' W 127°15'6 6.4
2014-Jul-31 04:33N 50°54' W 127°23'6 5.6
2014-Jul-31 03:33N 50°58' W 127°30'6 5.9
2014-Jul-31 02:32N 51°02' W 127°38'6 6.1
2014-Jul-31 01:33N 51°05' W 127°45'7 6.5
2014-Jul-31 00:30N 51°11' W 127°51'7 7.4
2014-Jul-30 23:32N 51°18' W 127°55'7 7.1
2014-Jul-30 22:33N 51°24' W 128°01'8 7.1
2014-Jul-30 21:27N 51°28' W 128°11'7 6.7
2014-Jul-30 20:26N 51°34' W 128°17'  
2014-Jul-27 06:20N 51°25' W 128°04'12 6.5
2014-Jul-27 04:32N 51°16' W 127°53'7 7.1
2014-Jul-27 03:33N 51°09' W 127°49'7 7.1
2014-Jul-27 02:33N 51°04' W 127°41'7 7.4
2014-Jul-27 01:33N 50°59' W 127°33'9 8.7
2014-Jul-27 00:33N 50°54' W 127°22'8 8.2
2014-Jul-26 23:33N 50°49' W 127°10'8 7.8
2014-Jul-26 22:33N 50°45' W 127°00'8 7.0
2014-Jul-26 21:25N 50°40' W 126°50'6 6.7
2014-Jul-26 20:33N 50°36' W 126°44'6 5.2
2014-Jul-26 19:25N 50°31' W 126°38'7 7.9
2014-Jul-26 18:28N 50°30' W 126°27'40 9.2
2014-Jul-26 14:09N 50°21' W 125°26'5 8.9
2014-Jul-26 13:33N 50°16' W 125°23'9 8.5
2014-Jul-26 12:29N 50°07' W 125°19'8 7.1
2014-Jul-26 11:19N 49°60' W 125°12'9 9.0
2014-Jul-26 10:22N 49°54' W 125°03'8 9.2
2014-Jul-26 09:32N 49°49' W 124°54'9 9.3
2014-Jul-26 08:33N 49°43' W 124°43'1010.0
2014-Jul-26 07:33N 49°38' W 124°30'9 9.1
2014-Jul-26 06:33N 49°33' W 124°18'9 9.2
2014-Jul-26 05:33N 49°28' W 124°06'9 9.4
2014-Jul-26 04:33N 49°25' W 123°52'10 9.6
2014-Jul-26 03:33N 49°23' W 123°38'8 8.2
2014-Jul-26 02:33N 49°24' W 123°25'5 4.9
2014-Jul-26 01:33N 49°28' W 123°29'0 0.1
2014-Jul-26 00:33N 49°28' W 123°29'0 0.0
2014-Jul-25 23:33N 49°28' W 123°29'0 0.0
2014-Jul-25 22:32N 49°28' W 123°29'0 0.0
2014-Jul-25 21:32N 49°28' W 123°29'0 0.0
2014-Jul-25 20:33N 49°28' W 123°29'0 0.0
2014-Jul-25 19:33N 49°28' W 123°29'0 0.0
2014-Jul-25 18:33N 49°28' W 123°29'0 0.0
2014-Jul-25 17:33N 49°28' W 123°29'0 0.0
2014-Jul-25 16:33N 49°28' W 123°29'0 0.0
2014-Jul-25 15:33N 49°28' W 123°29'0 0.0
2014-Jul-25 14:33N 49°28' W 123°29'0 0.0
2014-Jul-25 13:33N 49°28' W 123°29'0 0.0
2014-Jul-25 12:31N 49°28' W 123°29'0 0.0
2014-Jul-25 11:33N 49°28' W 123°29'0 0.0
2014-Jul-25 10:32N 49°28' W 123°29'0 0.0
2014-Jul-25 09:33N 49°28' W 123°29'0 0.0
2014-Jul-25 08:33N 49°28' W 123°29'0 0.0
2014-Jul-25 07:33N 49°28' W 123°29'0 0.0
2014-Jul-25 06:33N 49°28' W 123°29'0 0.0
2014-Jul-25 05:33N 49°28' W 123°29'0 0.0
2014-Jul-25 04:33N 49°28' W 123°29'0 0.0
2014-Jul-25 03:30N 49°28' W 123°29'0 0.0
2014-Jul-25 02:33N 49°28' W 123°29'0 0.0
2014-Jul-25 01:33N 49°28' W 123°29'0 0.0
2014-Jul-25 00:33N 49°28' W 123°29'0 0.0
2014-Jul-24 23:33N 49°28' W 123°29'0 0.0
2014-Jul-24 22:31N 49°28' W 123°29'0 0.0
2014-Jul-24 21:33N 49°28' W 123°29'0 0.0
2014-Jul-24 20:33N 49°28' W 123°29'8 7.7
2014-Jul-24 19:33N 49°21' W 123°26'1010.2
2014-Jul-24 18:33N 49°11' W 123°23'9 9.3
2014-Jul-24 17:33N 49°07' W 123°10'1211.9
2014-Jul-24 16:33N 49°12' W 122°54'0 0.1
2014-Jul-24 15:33N 49°12' W 122°54'0 0.0
2014-Jul-24 14:33N 49°12' W 122°54'0 0.0
2014-Jul-24 13:33N 49°12' W 122°54'0 0.0
2014-Jul-24 12:33N 49°12' W 122°54'0 0.0
2014-Jul-24 11:33N 49°12' W 122°54'0 0.0
2014-Jul-24 10:33N 49°12' W 122°54'0 0.0
2014-Jul-24 09:33N 49°12' W 122°54'0 0.0
2014-Jul-24 08:33N 49°12' W 122°54'0 0.0
2014-Jul-24 07:33N 49°12' W 122°54'0 0.0
2014-Jul-24 06:33N 49°12' W 122°54'0 0.0
2014-Jul-24 05:33N 49°12' W 122°54'0 0.0
2014-Jul-24 04:33N 49°12' W 122°54'0 0.1
2014-Jul-24 03:33N 49°12' W 122°54'0 0.0
2014-Jul-24 02:33N 49°12' W 122°54'0 0.1
2014-Jul-24 01:33N 49°12' W 122°54'0 0.0
2014-Jul-24 00:33N 49°12' W 122°54'0 0.0
2014-Jul-23 23:33N 49°12' W 122°54'0 0.0
2014-Jul-23 22:33N 49°12' W 122°54'0 0.0
2014-Jul-23 21:33N 49°12' W 122°54'0 0.0
2014-Jul-23 20:33N 49°12' W 122°54'0 0.0
2014-Jul-23 19:34N 49°12' W 122°54'0 0.0
2014-Jul-23 18:33N 49°12' W 122°54'0 0.0
2014-Jul-23 17:33N 49°12' W 122°54'0 0.0
2014-Jul-23 16:33N 49°12' W 122°54'0 0.0
2014-Jul-23 15:33N 49°12' W 122°54'0 0.0
2014-Jul-23 14:33N 49°12' W 122°54'0 0.0
2014-Jul-23 13:33N 49°12' W 122°54'0 0.0
2014-Jul-23 12:33N 49°12' W 122°54'0 0.0
2014-Jul-23 11:33N 49°12' W 122°54'0 0.0
2014-Jul-23 10:33N 49°12' W 122°54'0 0.0
2014-Jul-23 09:33N 49°12' W 122°54'0 0.0
2014-Jul-23 08:33N 49°12' W 122°54'0 0.0
2014-Jul-23 07:33N 49°12' W 122°54'0 0.0
2014-Jul-23 06:33N 49°12' W 122°54'0 0.0
2014-Jul-23 05:33N 49°12' W 122°54'0 0.0
2014-Jul-23 04:33N 49°12' W 122°54'0 0.0
2014-Jul-23 03:33N 49°12' W 122°54'  
Track history (hours):
 
Tides and Currents Weather Stations Pressure Air Temp Water Temp Dewpoint Dewpoint Depression Visibility Wind Speed Wind Dir Waves Ship Positions

Sea Commander

Last reported at 2014-Aug-02 02:33 UTC. Time now 2014-Aug-02 02:49 UTC.
Position N 49°10' W 122°56'.

Length 44 m; draft 7 m.

Type: Tug. MMSI: 316001043.

Date/timePositionNaut miles runAvg speedWind from/ knotsBaromVisibWave heightAir tempDewpointWater temp
2014-Aug-02 02:33N 49°10' W 122°56'5 4.7
2014-Aug-02 01:33N 49°08' W 123°03'5 4.5
2014-Aug-02 00:33N 49°07' W 123°10'4 3.7
2014-Aug-01 23:33N 49°08' W 123°15'3 3.1
2014-Aug-01 22:33N 49°06' W 123°19'5 5.2
2014-Aug-01 21:33N 49°01' W 123°15'3 3.1
2014-Aug-01 20:34N 48°58' W 123°14'4 4.4
2014-Aug-01 19:33N 49°01' W 123°19'4 3.9
2014-Aug-01 18:33N 49°04' W 123°23'5 4.5
2014-Aug-01 17:33N 49°08' W 123°26'4 4.5
2014-Aug-01 16:33N 49°12' W 123°31'5 4.8
2014-Aug-01 15:33N 49°15' W 123°35'5 4.6
2014-Aug-01 14:33N 49°18' W 123°41'5 4.5
2014-Aug-01 13:33N 49°20' W 123°47'4 4.5
2014-Aug-01 12:33N 49°23' W 123°53'5 4.5
2014-Aug-01 11:33N 49°25' W 123°59'4 4.5
2014-Aug-01 10:33N 49°27' W 124°05'5 4.7
2014-Aug-01 09:33N 49°30' W 124°11'5 4.8
2014-Aug-01 08:33N 49°32' W 124°17'4 4.5
2014-Aug-01 07:33N 49°34' W 124°23'4 4.3
2014-Aug-01 06:33N 49°36' W 124°29'5 4.6
2014-Aug-01 05:33N 49°38' W 124°35'5 4.6
2014-Aug-01 04:33N 49°41' W 124°41'5 4.7
2014-Aug-01 03:33N 49°44' W 124°46'5 4.5
2014-Aug-01 02:33N 49°47' W 124°51'5 4.8
2014-Aug-01 01:31N 49°51' W 124°57'5 4.7
2014-Aug-01 00:33N 49°53' W 125°03'5 5.1
2014-Jul-31 23:32N 49°57' W 125°09'9 7.9
2014-Jul-31 22:27N 50°04' W 125°15'35 4.3
2014-Jul-31 14:24N 50°25' W 125°59'20 6.7
2014-Jul-31 11:25N 50°30' W 126°30'8 6.0
2014-Jul-31 10:07N 50°32' W 126°41'17 6.2
2014-Jul-31 07:24N 50°45' W 126°60'5 6.1
2014-Jul-31 06:32N 50°48' W 127°06'6 6.5
2014-Jul-31 05:32N 50°51' W 127°15'6 6.4
2014-Jul-31 04:33N 50°54' W 127°23'6 5.6
2014-Jul-31 03:33N 50°58' W 127°30'6 5.9
2014-Jul-31 02:32N 51°02' W 127°38'6 6.1
2014-Jul-31 01:33N 51°05' W 127°45'7 6.5
2014-Jul-31 00:30N 51°11' W 127°51'7 7.4
2014-Jul-30 23:32N 51°18' W 127°55'7 7.1
2014-Jul-30 22:33N 51°24' W 128°01'8 7.1
2014-Jul-30 21:27N 51°28' W 128°11'7 6.7
2014-Jul-30 20:26N 51°34' W 128°17'  
2014-Jul-27 06:20N 51°25' W 128°04'12 6.5
2014-Jul-27 04:32N 51°16' W 127°53'7 7.1
2014-Jul-27 03:33N 51°09' W 127°49'7 7.1
2014-Jul-27 02:33N 51°04' W 127°41'7 7.4
2014-Jul-27 01:33N 50°59' W 127°33'9 8.7
2014-Jul-27 00:33N 50°54' W 127°22'8 8.2
2014-Jul-26 23:33N 50°49' W 127°10'8 7.8
2014-Jul-26 22:33N 50°45' W 127°00'8 7.0
2014-Jul-26 21:25N 50°40' W 126°50'6 6.7
2014-Jul-26 20:33N 50°36' W 126°44'6 5.2
2014-Jul-26 19:25N 50°31' W 126°38'7 7.9
2014-Jul-26 18:28N 50°30' W 126°27'40 9.2
2014-Jul-26 14:09N 50°21' W 125°26'5 8.9
2014-Jul-26 13:33N 50°16' W 125°23'9 8.5
2014-Jul-26 12:29N 50°07' W 125°19'8 7.1
2014-Jul-26 11:19N 49°60' W 125°12'9 9.0
2014-Jul-26 10:22N 49°54' W 125°03'8 9.2
2014-Jul-26 09:32N 49°49' W 124°54'9 9.3
2014-Jul-26 08:33N 49°43' W 124°43'1010.0
2014-Jul-26 07:33N 49°38' W 124°30'9 9.1
2014-Jul-26 06:33N 49°33' W 124°18'9 9.2
2014-Jul-26 05:33N 49°28' W 124°06'9 9.4
2014-Jul-26 04:33N 49°25' W 123°52'10 9.6
2014-Jul-26 03:33N 49°23' W 123°38'8 8.2
2014-Jul-26 02:33N 49°24' W 123°25'5 4.9
2014-Jul-26 01:33N 49°28' W 123°29'0 0.1
2014-Jul-26 00:33N 49°28' W 123°29'0 0.0
2014-Jul-25 23:33N 49°28' W 123°29'0 0.0
2014-Jul-25 22:32N 49°28' W 123°29'0 0.0
2014-Jul-25 21:32N 49°28' W 123°29'0 0.0
2014-Jul-25 20:33N 49°28' W 123°29'0 0.0
2014-Jul-25 19:33N 49°28' W 123°29'0 0.0
2014-Jul-25 18:33N 49°28' W 123°29'0 0.0
2014-Jul-25 17:33N 49°28' W 123°29'0 0.0
2014-Jul-25 16:33N 49°28' W 123°29'0 0.0
2014-Jul-25 15:33N 49°28' W 123°29'0 0.0
2014-Jul-25 14:33N 49°28' W 123°29'0 0.0
2014-Jul-25 13:33N 49°28' W 123°29'0 0.0
2014-Jul-25 12:31N 49°28' W 123°29'0 0.0
2014-Jul-25 11:33N 49°28' W 123°29'0 0.0
2014-Jul-25 10:32N 49°28' W 123°29'0 0.0
2014-Jul-25 09:33N 49°28' W 123°29'0 0.0
2014-Jul-25 08:33N 49°28' W 123°29'0 0.0
2014-Jul-25 07:33N 49°28' W 123°29'0 0.0
2014-Jul-25 06:33N 49°28' W 123°29'0 0.0
2014-Jul-25 05:33N 49°28' W 123°29'0 0.0
2014-Jul-25 04:33N 49°28' W 123°29'0 0.0
2014-Jul-25 03:30N 49°28' W 123°29'0 0.0
2014-Jul-25 02:33N 49°28' W 123°29'0 0.0
2014-Jul-25 01:33N 49°28' W 123°29'0 0.0
2014-Jul-25 00:33N 49°28' W 123°29'0 0.0
2014-Jul-24 23:33N 49°28' W 123°29'0 0.0
2014-Jul-24 22:31N 49°28' W 123°29'0 0.0
2014-Jul-24 21:33N 49°28' W 123°29'0 0.0
2014-Jul-24 20:33N 49°28' W 123°29'8 7.7
2014-Jul-24 19:33N 49°21' W 123°26'1010.2
2014-Jul-24 18:33N 49°11' W 123°23'9 9.3
2014-Jul-24 17:33N 49°07' W 123°10'1211.9
2014-Jul-24 16:33N 49°12' W 122°54'0 0.1
2014-Jul-24 15:33N 49°12' W 122°54'0 0.0
2014-Jul-24 14:33N 49°12' W 122°54'0 0.0
2014-Jul-24 13:33N 49°12' W 122°54'0 0.0
2014-Jul-24 12:33N 49°12' W 122°54'0 0.0
2014-Jul-24 11:33N 49°12' W 122°54'0 0.0
2014-Jul-24 10:33N 49°12' W 122°54'0 0.0
2014-Jul-24 09:33N 49°12' W 122°54'0 0.0
2014-Jul-24 08:33N 49°12' W 122°54'0 0.0
2014-Jul-24 07:33N 49°12' W 122°54'0 0.0
2014-Jul-24 06:33N 49°12' W 122°54'0 0.0
2014-Jul-24 05:33N 49°12' W 122°54'0 0.0
2014-Jul-24 04:33N 49°12' W 122°54'0 0.1
2014-Jul-24 03:33N 49°12' W 122°54'0 0.0
2014-Jul-24 02:33N 49°12' W 122°54'0 0.1
2014-Jul-24 01:33N 49°12' W 122°54'0 0.0
2014-Jul-24 00:33N 49°12' W 122°54'0 0.0
2014-Jul-23 23:33N 49°12' W 122°54'0 0.0
2014-Jul-23 22:33N 49°12' W 122°54'0 0.0
2014-Jul-23 21:33N 49°12' W 122°54'0 0.0
2014-Jul-23 20:33N 49°12' W 122°54'0 0.0
2014-Jul-23 19:34N 49°12' W 122°54'0 0.0
2014-Jul-23 18:33N 49°12' W 122°54'0 0.0
2014-Jul-23 17:33N 49°12' W 122°54'0 0.0
2014-Jul-23 16:33N 49°12' W 122°54'0 0.0
2014-Jul-23 15:33N 49°12' W 122°54'0 0.0
2014-Jul-23 14:33N 49°12' W 122°54'0 0.0
2014-Jul-23 13:33N 49°12' W 122°54'0 0.0
2014-Jul-23 12:33N 49°12' W 122°54'0 0.0
2014-Jul-23 11:33N 49°12' W 122°54'0 0.0
2014-Jul-23 10:33N 49°12' W 122°54'0 0.0
2014-Jul-23 09:33N 49°12' W 122°54'0 0.0
2014-Jul-23 08:33N 49°12' W 122°54'0 0.0
2014-Jul-23 07:33N 49°12' W 122°54'0 0.0
2014-Jul-23 06:33N 49°12' W 122°54'0 0.0
2014-Jul-23 05:33N 49°12' W 122°54'0 0.0
2014-Jul-23 04:33N 49°12' W 122°54'0 0.0
2014-Jul-23 03:33N 49°12' W 122°54'  

Dump ship's entire track history